Ulan-Ude, Russia
Current Conditions -  °F | °C
As of 2:30 AM on Wednesday 22 Oct 2014 (Local Time) from UIUU Reporting Station
Clear Clear  
Wind Chill: 16°   Ceiling: Unl
Heat Index: 16°   Visibility: 6mi
Dew Point:   Wind: 0mph
Humidity: 73%   Direction: NA
Pressure: 29.91"   Gusts: NA
Location:  51.83°N, 107.62°E
Report Text: UIUU 211830Z 00000MPS 9999 SKC M09/M13 Q1013 NOSIG RMKQFE715/0954 26CLRD60
Loading
Personal Weather Stations






























Interactive Weather Map
Tropical Storm Tracking
New forecast layout! Learn more

10-Day Weather Forecast

Advertisements
Track Severe Weather on mobile